sensor_id;sensor_type;location;lat;lon;timestamp;temperature;humidity
38237;DHT22;50101;49.438;11.098;2022-09-14T00:01:13;21.90;66.50
38237;DHT22;50101;49.438;11.098;2022-09-14T00:04:00;21.90;66.50
38237;DHT22;50101;49.438;11.098;2022-09-14T00:06:27;21.90;66.50
38237;DHT22;50101;49.438;11.098;2022-09-14T00:08:55;21.90;66.50
38237;DHT22;50101;49.438;11.098;2022-09-14T00:11:25;21.90;66.50
38237;DHT22;50101;49.438;11.098;2022-09-14T00:13:52;21.90;66.50
38237;DHT22;50101;49.438;11.098;2022-09-14T00:16:22;21.90;66.50
38237;DHT22;50101;49.438;11.098;2022-09-14T00:18:50;21.90;66.50
38237;DHT22;50101;49.438;11.098;2022-09-14T00:21:17;21.90;66.50
38237;DHT22;50101;49.438;11.098;2022-09-14T00:23:44;21.90;66.50
38237;DHT22;50101;49.438;11.098;2022-09-14T00:26:13;21.90;66.50
38237;DHT22;50101;49.438;11.098;2022-09-14T00:28:47;21.90;66.60
38237;DHT22;50101;49.438;11.098;2022-09-14T00:31:15;21.90;66.40
38237;DHT22;50101;49.438;11.098;2022-09-14T00:33:43;21.90;65.90
38237;DHT22;50101;49.438;11.098;2022-09-14T00:36:13;21.90;66.50
38237;DHT22;50101;49.438;11.098;2022-09-14T00:38:40;21.90;66.50
38237;DHT22;50101;49.438;11.098;2022-09-14T00:41:12;21.90;66.60
38237;DHT22;50101;49.438;11.098;2022-09-14T00:46:56;21.90;66.50
38237;DHT22;50101;49.438;11.098;2022-09-14T00:49:38;21.90;66.40
38237;DHT22;50101;49.438;11.098;2022-09-14T00:52:17;21.90;66.50
38237;DHT22;50101;49.438;11.098;2022-09-14T00:54:48;21.90;66.50
38237;DHT22;50101;49.438;11.098;2022-09-14T00:57:16;21.90;66.50
38237;DHT22;50101;49.438;11.098;2022-09-14T00:59:45;21.90;66.60
38237;DHT22;50101;49.438;11.098;2022-09-14T01:02:13;21.90;66.50
38237;DHT22;50101;49.438;11.098;2022-09-14T01:04:41;21.90;66.50
38237;DHT22;50101;49.438;11.098;2022-09-14T01:07:47;21.90;66.60
38237;DHT22;50101;49.438;11.098;2022-09-14T01:10:35;21.90;66.50
38237;DHT22;50101;49.438;11.098;2022-09-14T01:19:47;21.90;66.60
38237;DHT22;50101;49.438;11.098;2022-09-14T01:22:34;21.90;66.60
38237;DHT22;50101;49.438;11.098;2022-09-14T01:27:42;21.90;66.50
38237;DHT22;50101;49.438;11.098;2022-09-14T01:30:13;21.90;66.50
38237;DHT22;50101;49.438;11.098;2022-09-14T01:32:55;21.90;66.60
38237;DHT22;50101;49.438;11.098;2022-09-14T01:35:32;21.90;66.60
38237;DHT22;50101;49.438;11.098;2022-09-14T01:38:02;21.90;66.50
38237;DHT22;50101;49.438;11.098;2022-09-14T01:40:39;21.90;66.50
38237;DHT22;50101;49.438;11.098;2022-09-14T01:43:20;21.90;66.50
38237;DHT22;50101;49.438;11.098;2022-09-14T01:45:53;21.90;66.60
38237;DHT22;50101;49.438;11.098;2022-09-14T01:48:33;21.90;66.70
38237;DHT22;50101;49.438;11.098;2022-09-14T01:51:03;21.90;66.70
38237;DHT22;50101;49.438;11.098;2022-09-14T01:53:44;21.90;66.70
38237;DHT22;50101;49.438;11.098;2022-09-14T01:56:29;21.90;66.60
38237;DHT22;50101;49.438;11.098;2022-09-14T01:59:19;21.90;66.50
38237;DHT22;50101;49.438;11.098;2022-09-14T02:02:11;21.90;66.60
38237;DHT22;50101;49.438;11.098;2022-09-14T02:04:51;21.90;66.50
38237;DHT22;50101;49.438;11.098;2022-09-14T02:07:18;21.90;66.60
38237;DHT22;50101;49.438;11.098;2022-09-14T02:09:47;21.90;66.60
38237;DHT22;50101;49.438;11.098;2022-09-14T02:12:14;21.90;66.50
38237;DHT22;50101;49.438;11.098;2022-09-14T02:14:43;21.90;66.60
38237;DHT22;50101;49.438;11.098;2022-09-14T02:17:12;21.90;66.60
38237;DHT22;50101;49.438;11.098;2022-09-14T02:19:43;21.90;66.60
38237;DHT22;50101;49.438;11.098;2022-09-14T02:22:11;21.90;66.60
38237;DHT22;50101;49.438;11.098;2022-09-14T02:24:38;21.80;66.70
38237;DHT22;50101;49.438;11.098;2022-09-14T02:27:06;21.90;67.30
38237;DHT22;50101;49.438;11.098;2022-09-14T02:29:33;21.90;66.60
38237;DHT22;50101;49.438;11.098;2022-09-14T02:35:38;21.90;66.60
38237;DHT22;50101;49.438;11.098;2022-09-14T02:41:09;21.90;66.70
38237;DHT22;50101;49.438;11.098;2022-09-14T02:46:29;21.90;66.60
38237;DHT22;50101;49.438;11.098;2022-09-14T02:49:18;21.80;66.50
38237;DHT22;50101;49.438;11.098;2022-09-14T02:51:58;21.80;66.50
38237;DHT22;50101;49.438;11.098;2022-09-14T02:54:34;21.90;66.60
38237;DHT22;50101;49.438;11.098;2022-09-14T02:57:03;21.90;66.50
38237;DHT22;50101;49.438;11.098;2022-09-14T02:59:30;21.90;66.60
38237;DHT22;50101;49.438;11.098;2022-09-14T03:01:58;21.90;66.60
38237;DHT22;50101;49.438;11.098;2022-09-14T03:04:26;21.90;66.60
38237;DHT22;50101;49.438;11.098;2022-09-14T03:06:52;21.90;66.70
38237;DHT22;50101;49.438;11.098;2022-09-14T03:09:19;21.90;66.60
38237;DHT22;50101;49.438;11.098;2022-09-14T03:11:46;21.90;66.60
38237;DHT22;50101;49.438;11.098;2022-09-14T03:14:12;21.90;66.80
38237;DHT22;50101;49.438;11.098;2022-09-14T03:16:39;21.90;66.70
38237;DHT22;50101;49.438;11.098;2022-09-14T03:19:06;21.90;66.60
38237;DHT22;50101;49.438;11.098;2022-09-14T03:21:32;21.90;66.70
38237;DHT22;50101;49.438;11.098;2022-09-14T03:23:59;21.90;66.60
38237;DHT22;50101;49.438;11.098;2022-09-14T03:26:26;21.90;66.60
38237;DHT22;50101;49.438;11.098;2022-09-14T03:28:56;21.90;66.60
38237;DHT22;50101;49.438;11.098;2022-09-14T03:31:24;21.90;66.60
38237;DHT22;50101;49.438;11.098;2022-09-14T03:33:56;21.90;66.70
38237;DHT22;50101;49.438;11.098;2022-09-14T03:36:26;21.90;66.70
38237;DHT22;50101;49.438;11.098;2022-09-14T03:38:55;21.90;66.70
38237;DHT22;50101;49.438;11.098;2022-09-14T03:41:23;21.80;66.60
38237;DHT22;50101;49.438;11.098;2022-09-14T03:43:49;21.80;66.10
38237;DHT22;50101;49.438;11.098;2022-09-14T03:46:19;21.90;66.00
38237;DHT22;50101;49.438;11.098;2022-09-14T03:48:49;21.90;66.00
38237;DHT22;50101;49.438;11.098;2022-09-14T03:51:16;21.80;66.00
38237;DHT22;50101;49.438;11.098;2022-09-14T03:53:43;21.80;66.60
38237;DHT22;50101;49.438;11.098;2022-09-14T03:56:20;21.90;66.70
38237;DHT22;50101;49.438;11.098;2022-09-14T03:58:48;21.80;66.60
38237;DHT22;50101;49.438;11.098;2022-09-14T04:01:17;21.80;66.60
38237;DHT22;50101;49.438;11.098;2022-09-14T04:03:44;21.80;66.00
38237;DHT22;50101;49.438;11.098;2022-09-14T04:06:11;21.80;66.60
38237;DHT22;50101;49.438;11.098;2022-09-14T04:08:40;21.80;66.60
38237;DHT22;50101;49.438;11.098;2022-09-14T04:11:29;21.80;66.60
38237;DHT22;50101;49.438;11.098;2022-09-14T04:14:01;21.80;66.00
38237;DHT22;50101;49.438;11.098;2022-09-14T04:16:28;21.80;66.60
38237;DHT22;50101;49.438;11.098;2022-09-14T04:18:55;21.80;66.60
38237;DHT22;50101;49.438;11.098;2022-09-14T04:21:23;21.90;66.70
38237;DHT22;50101;49.438;11.098;2022-09-14T04:23:55;21.80;66.60
38237;DHT22;50101;49.438;11.098;2022-09-14T04:26:41;21.80;66.60
38237;DHT22;50101;49.438;11.098;2022-09-14T04:29:09;21.90;66.60
38237;DHT22;50101;49.438;11.098;2022-09-14T04:31:36;21.90;66.60
38237;DHT22;50101;49.438;11.098;2022-09-14T04:34:03;21.80;68.00
38237;DHT22;50101;49.438;11.098;2022-09-14T04:36:30;21.90;68.40
38237;DHT22;50101;49.438;11.098;2022-09-14T04:39:01;21.90;68.40
38237;DHT22;50101;49.438;11.098;2022-09-14T04:41:29;21.90;69.00
38237;DHT22;50101;49.438;11.098;2022-09-14T04:43:56;21.80;68.80
38237;DHT22;50101;49.438;11.098;2022-09-14T04:46:29;21.80;68.70
38237;DHT22;50101;49.438;11.098;2022-09-14T04:48:56;21.90;69.20
38237;DHT22;50101;49.438;11.098;2022-09-14T04:51:25;21.80;68.90
38237;DHT22;50101;49.438;11.098;2022-09-14T04:53:54;21.90;69.00
38237;DHT22;50101;49.438;11.098;2022-09-14T04:56:22;21.90;68.90
38237;DHT22;50101;49.438;11.098;2022-09-14T04:58:52;21.90;68.80
38237;DHT22;50101;49.438;11.098;2022-09-14T05:01:21;21.90;69.30
38237;DHT22;50101;49.438;11.098;2022-09-14T05:03:49;21.90;69.20
38237;DHT22;50101;49.438;11.098;2022-09-14T05:06:21;21.90;69.10
38237;DHT22;50101;49.438;11.098;2022-09-14T05:08:49;21.90;69.20
38237;DHT22;50101;49.438;11.098;2022-09-14T05:11:18;21.90;69.20
38237;DHT22;50101;49.438;11.098;2022-09-14T05:13:45;21.90;69.40
38237;DHT22;50101;49.438;11.098;2022-09-14T05:18:44;21.90;68.90
38237;DHT22;50101;49.438;11.098;2022-09-14T05:21:13;21.90;68.80
38237;DHT22;50101;49.438;11.098;2022-09-14T05:23:40;21.90;69.20
38237;DHT22;50101;49.438;11.098;2022-09-14T05:26:07;21.90;69.00
38237;DHT22;50101;49.438;11.098;2022-09-14T05:28:36;21.90;68.90
38237;DHT22;50101;49.438;11.098;2022-09-14T05:31:05;21.90;69.20
38237;DHT22;50101;49.438;11.098;2022-09-14T05:33:33;21.90;69.00
38237;DHT22;50101;49.438;11.098;2022-09-14T05:36:05;21.90;68.90
38237;DHT22;50101;49.438;11.098;2022-09-14T05:38:34;21.90;68.80
38237;DHT22;50101;49.438;11.098;2022-09-14T05:41:01;21.90;68.70
38237;DHT22;50101;49.438;11.098;2022-09-14T05:43:28;21.90;68.70
38237;DHT22;50101;49.438;11.098;2022-09-14T05:45:55;21.90;68.60
38237;DHT22;50101;49.438;11.098;2022-09-14T05:48:26;21.90;68.60
38237;DHT22;50101;49.438;11.098;2022-09-14T05:51:08;21.90;68.60
38237;DHT22;50101;49.438;11.098;2022-09-14T05:53:35;21.90;68.80
38237;DHT22;50101;49.438;11.098;2022-09-14T05:58:32;21.80;68.70
38237;DHT22;50101;49.438;11.098;2022-09-14T06:01:05;21.80;68.00
38237;DHT22;50101;49.438;11.098;2022-09-14T06:03:32;21.80;68.10
38237;DHT22;50101;49.438;11.098;2022-09-14T06:05:59;21.80;68.70
38237;DHT22;50101;49.438;11.098;2022-09-14T06:08:25;21.80;68.70
38237;DHT22;50101;49.438;11.098;2022-09-14T06:10:52;21.90;68.70
38237;DHT22;50101;49.438;11.098;2022-09-14T06:13:19;21.90;68.60
38237;DHT22;50101;49.438;11.098;2022-09-14T06:15:46;21.80;68.60
38237;DHT22;50101;49.438;11.098;2022-09-14T06:18:12;21.80;68.60
38237;DHT22;50101;49.438;11.098;2022-09-14T06:20:39;21.80;68.60
38237;DHT22;50101;49.438;11.098;2022-09-14T06:23:14;21.80;68.70
38237;DHT22;50101;49.438;11.098;2022-09-14T06:25:41;21.80;68.50
38237;DHT22;50101;49.438;11.098;2022-09-14T06:28:07;21.80;68.60
38237;DHT22;50101;49.438;11.098;2022-09-14T06:30:34;21.80;68.60
38237;DHT22;50101;49.438;11.098;2022-09-14T06:33:03;21.80;68.50
38237;DHT22;50101;49.438;11.098;2022-09-14T06:35:30;21.80;68.50
38237;DHT22;50101;49.438;11.098;2022-09-14T06:37:57;21.80;68.50
38237;DHT22;50101;49.438;11.098;2022-09-14T06:40:23;21.80;68.60
38237;DHT22;50101;49.438;11.098;2022-09-14T06:42:50;21.80;67.90
38237;DHT22;50101;49.438;11.098;2022-09-14T06:45:16;21.80;68.50
38237;DHT22;50101;49.438;11.098;2022-09-14T06:47:43;21.80;68.50
38237;DHT22;50101;49.438;11.098;2022-09-14T06:50:10;21.80;68.50
38237;DHT22;50101;49.438;11.098;2022-09-14T06:52:36;21.80;68.50
38237;DHT22;50101;49.438;11.098;2022-09-14T06:55:04;21.80;68.60
38237;DHT22;50101;49.438;11.098;2022-09-14T06:57:30;21.80;68.60
38237;DHT22;50101;49.438;11.098;2022-09-14T06:59:57;21.80;68.50
38237;DHT22;50101;49.438;11.098;2022-09-14T07:02:24;21.80;68.50
38237;DHT22;50101;49.438;11.098;2022-09-14T07:04:50;21.80;68.50
38237;DHT22;50101;49.438;11.098;2022-09-14T07:07:17;21.80;68.40
38237;DHT22;50101;49.438;11.098;2022-09-14T07:09:44;21.80;68.50
38237;DHT22;50101;49.438;11.098;2022-09-14T07:12:11;21.70;67.70
38237;DHT22;50101;49.438;11.098;2022-09-14T07:14:38;21.80;68.50
38237;DHT22;50101;49.438;11.098;2022-09-14T07:17:04;21.80;68.60
38237;DHT22;50101;49.438;11.098;2022-09-14T07:19:31;21.80;68.60
38237;DHT22;50101;49.438;11.098;2022-09-14T07:21:59;21.80;68.60
38237;DHT22;50101;49.438;11.098;2022-09-14T07:24:25;21.90;68.20
38237;DHT22;50101;49.438;11.098;2022-09-14T07:26:52;21.90;68.10
38237;DHT22;50101;49.438;11.098;2022-09-14T07:29:19;23.50;69.50
38237;DHT22;50101;49.438;11.098;2022-09-14T07:31:49;21.90;67.80
38237;DHT22;50101;49.438;11.098;2022-09-14T07:34:17;21.90;67.00
38237;DHT22;50101;49.438;11.098;2022-09-14T07:36:44;22.00;67.50
38237;DHT22;50101;49.438;11.098;2022-09-14T07:39:13;22.00;67.50
38237;DHT22;50101;49.438;11.098;2022-09-14T07:41:41;22.00;67.40
38237;DHT22;50101;49.438;11.098;2022-09-14T07:44:11;22.00;67.40
38237;DHT22;50101;49.438;11.098;2022-09-14T07:46:40;22.00;67.30
38237;DHT22;50101;49.438;11.098;2022-09-14T07:49:08;21.90;67.10
38237;DHT22;50101;49.438;11.098;2022-09-14T07:51:35;22.00;67.20
38237;DHT22;50101;49.438;11.098;2022-09-14T07:54:03;22.00;67.30
38237;DHT22;50101;49.438;11.098;2022-09-14T07:56:31;22.00;67.20
38237;DHT22;50101;49.438;11.098;2022-09-14T07:58:58;22.00;67.20
38237;DHT22;50101;49.438;11.098;2022-09-14T08:01:45;22.00;67.10
38237;DHT22;50101;49.438;11.098;2022-09-14T08:04:12;22.00;66.90
38237;DHT22;50101;49.438;11.098;2022-09-14T08:06:38;22.00;66.80
38237;DHT22;50101;49.438;11.098;2022-09-14T08:09:06;22.10;66.90
38237;DHT22;50101;49.438;11.098;2022-09-14T08:11:34;22.10;66.80
38237;DHT22;50101;49.438;11.098;2022-09-14T08:14:06;22.00;66.80
38237;DHT22;50101;49.438;11.098;2022-09-14T08:16:35;22.00;66.90
38237;DHT22;50101;49.438;11.098;2022-09-14T08:19:06;22.00;67.00
38237;DHT22;50101;49.438;11.098;2022-09-14T08:21:33;22.00;67.30
38237;DHT22;50101;49.438;11.098;2022-09-14T08:24:01;22.00;67.10
38237;DHT22;50101;49.438;11.098;2022-09-14T08:26:30;22.00;66.40
38237;DHT22;50101;49.438;11.098;2022-09-14T08:28:57;22.00;66.20
38237;DHT22;50101;49.438;11.098;2022-09-14T08:31:27;22.00;66.20
38237;DHT22;50101;49.438;11.098;2022-09-14T08:33:56;22.00;66.20
38237;DHT22;50101;49.438;11.098;2022-09-14T08:36:25;22.00;66.00
38237;DHT22;50101;49.438;11.098;2022-09-14T08:38:52;22.10;66.10
38237;DHT22;50101;49.438;11.098;2022-09-14T08:44:01;22.10;65.90
38237;DHT22;50101;49.438;11.098;2022-09-14T08:46:31;22.10;65.80
38237;DHT22;50101;49.438;11.098;2022-09-14T08:49:00;22.10;65.70
38237;DHT22;50101;49.438;11.098;2022-09-14T08:51:28;22.10;65.90
38237;DHT22;50101;49.438;11.098;2022-09-14T08:53:56;22.10;65.90
38237;DHT22;50101;49.438;11.098;2022-09-14T08:56:31;22.10;67.10
38237;DHT22;50101;49.438;11.098;2022-09-14T08:59:02;22.10;66.40
38237;DHT22;50101;49.438;11.098;2022-09-14T09:02:06;22.10;66.50
38237;DHT22;50101;49.438;11.098;2022-09-14T09:05:01;22.10;65.80
38237;DHT22;50101;49.438;11.098;2022-09-14T09:07:34;22.10;66.00
38237;DHT22;50101;49.438;11.098;2022-09-14T09:10:05;22.10;66.60
38237;DHT22;50101;49.438;11.098;2022-09-14T09:12:51;22.10;66.50
38237;DHT22;50101;49.438;11.098;2022-09-14T09:15:26;22.10;66.50
38237;DHT22;50101;49.438;11.098;2022-09-14T09:17:58;22.10;65.90
38237;DHT22;50101;49.438;11.098;2022-09-14T09:20:49;22.10;66.00
38237;DHT22;50101;49.438;11.098;2022-09-14T09:23:23;22.10;66.60
38237;DHT22;50101;49.438;11.098;2022-09-14T09:28:52;22.00;66.60
38237;DHT22;50101;49.438;11.098;2022-09-14T09:31:36;22.00;66.50
38237;DHT22;50101;49.438;11.098;2022-09-14T09:34:04;22.10;66.00
38237;DHT22;50101;49.438;11.098;2022-09-14T09:36:37;22.10;66.50
38237;DHT22;50101;49.438;11.098;2022-09-14T09:39:05;22.10;66.50
38237;DHT22;50101;49.438;11.098;2022-09-14T09:41:47;22.10;66.50
38237;DHT22;50101;49.438;11.098;2022-09-14T09:44:15;22.10;65.90
38237;DHT22;50101;49.438;11.098;2022-09-14T09:47:08;22.10;65.50
38237;DHT22;50101;49.438;11.098;2022-09-14T09:49:37;22.00;65.50
38237;DHT22;50101;49.438;11.098;2022-09-14T09:52:15;22.10;66.30
38237;DHT22;50101;49.438;11.098;2022-09-14T09:54:48;22.10;66.30
38237;DHT22;50101;49.438;11.098;2022-09-14T09:57:30;22.10;66.40
38237;DHT22;50101;49.438;11.098;2022-09-14T10:02:44;22.10;65.70
38237;DHT22;50101;49.438;11.098;2022-09-14T10:05:30;22.10;66.40
38237;DHT22;50101;49.438;11.098;2022-09-14T10:07:59;22.10;66.40
38237;DHT22;50101;49.438;11.098;2022-09-14T10:13:14;22.10;66.30
38237;DHT22;50101;49.438;11.098;2022-09-14T10:15:41;22.00;65.70
38237;DHT22;50101;49.438;11.098;2022-09-14T10:25:49;22.10;66.30
38237;DHT22;50101;49.438;11.098;2022-09-14T10:28:24;22.10;70.50
38237;DHT22;50101;49.438;11.098;2022-09-14T10:31:01;22.00;74.50
38237;DHT22;50101;49.438;11.098;2022-09-14T10:33:30;22.00;75.30
38237;DHT22;50101;49.438;11.098;2022-09-14T10:38:52;22.10;73.60
38237;DHT22;50101;49.438;11.098;2022-09-14T10:44:17;22.10;70.70
38237;DHT22;50101;49.438;11.098;2022-09-14T10:55:30;22.10;68.90
38237;DHT22;50101;49.438;11.098;2022-09-14T11:00:29;22.10;72.30
38237;DHT22;50101;49.438;11.098;2022-09-14T11:03:14;22.20;74.60
38237;DHT22;50101;49.438;11.098;2022-09-14T11:05:50;22.20;73.80
38237;DHT22;50101;49.438;11.098;2022-09-14T11:19:38;22.10;68.40
38237;DHT22;50101;49.438;11.098;2022-09-14T11:25:00;22.10;68.00
38237;DHT22;50101;49.438;11.098;2022-09-14T11:27:38;22.10;67.50
38237;DHT22;50101;49.438;11.098;2022-09-14T11:30:16;22.10;67.40
38237;DHT22;50101;49.438;11.098;2022-09-14T11:32:53;22.10;66.80
38237;DHT22;50101;49.438;11.098;2022-09-14T11:35:27;22.10;67.50
38237;DHT22;50101;49.438;11.098;2022-09-14T11:40:28;22.10;67.40
38237;DHT22;50101;49.438;11.098;2022-09-14T11:43:12;22.10;67.40
38237;DHT22;50101;49.438;11.098;2022-09-14T11:45:45;22.10;67.40
38237;DHT22;50101;49.438;11.098;2022-09-14T11:51:16;22.10;68.30
38237;DHT22;50101;49.438;11.098;2022-09-14T11:53:45;22.10;69.10
38237;DHT22;50101;49.438;11.098;2022-09-14T11:56:27;22.10;69.00
38237;DHT22;50101;49.438;11.098;2022-09-14T11:59:05;22.10;68.30
38237;DHT22;50101;49.438;11.098;2022-09-14T12:01:39;22.10;68.10
38237;DHT22;50101;49.438;11.098;2022-09-14T12:04:17;22.10;68.70
38237;DHT22;50101;49.438;11.098;2022-09-14T12:06:47;22.10;68.60
38237;DHT22;50101;49.438;11.098;2022-09-14T12:11:54;22.20;68.10
38237;DHT22;50101;49.438;11.098;2022-09-14T12:19:52;22.20;68.10
38237;DHT22;50101;49.438;11.098;2022-09-14T12:22:35;22.10;68.00
38237;DHT22;50101;49.438;11.098;2022-09-14T12:27:40;22.20;67.40
38237;DHT22;50101;49.438;11.098;2022-09-14T12:36:04;22.10;67.00
38237;DHT22;50101;49.438;11.098;2022-09-14T12:51:22;22.20;66.90
38237;DHT22;50101;49.438;11.098;2022-09-14T12:59:43;22.30;66.70
38237;DHT22;50101;49.438;11.098;2022-09-14T13:05:13;22.40;67.20
38237;DHT22;50101;49.438;11.098;2022-09-14T13:07:40;22.30;67.20
38237;DHT22;50101;49.438;11.098;2022-09-14T13:10:26;22.40;66.40
38237;DHT22;50101;49.438;11.098;2022-09-14T13:12:56;22.40;66.50
38237;DHT22;50101;49.438;11.098;2022-09-14T13:15:47;22.40;66.70
38237;DHT22;50101;49.438;11.098;2022-09-14T13:20:55;22.40;66.60
38237;DHT22;50101;49.438;11.098;2022-09-14T13:23:28;22.30;66.50
38237;DHT22;50101;49.438;11.098;2022-09-14T13:25:55;22.30;67.10
38237;DHT22;50101;49.438;11.098;2022-09-14T13:28:22;22.30;67.10
38237;DHT22;50101;49.438;11.098;2022-09-14T13:30:53;22.30;66.70
38237;DHT22;50101;49.438;11.098;2022-09-14T13:33:21;22.30;66.60
38237;DHT22;50101;49.438;11.098;2022-09-14T13:35:48;22.30;66.60
38237;DHT22;50101;49.438;11.098;2022-09-14T13:38:17;22.30;67.20
38237;DHT22;50101;49.438;11.098;2022-09-14T13:40:45;22.30;67.20
38237;DHT22;50101;49.438;11.098;2022-09-14T13:43:16;22.30;67.20
38237;DHT22;50101;49.438;11.098;2022-09-14T13:45:43;22.30;66.60
38237;DHT22;50101;49.438;11.098;2022-09-14T13:48:13;22.30;67.20
38237;DHT22;50101;49.438;11.098;2022-09-14T13:50:43;22.30;66.70
38237;DHT22;50101;49.438;11.098;2022-09-14T13:56:30;22.30;66.60
38237;DHT22;50101;49.438;11.098;2022-09-14T13:59:18;22.20;66.60
38237;DHT22;50101;49.438;11.098;2022-09-14T14:01:52;22.30;67.30
38237;DHT22;50101;49.438;11.098;2022-09-14T14:04:32;22.20;67.20
38237;DHT22;50101;49.438;11.098;2022-09-14T14:09:45;22.20;66.60
38237;DHT22;50101;49.438;11.098;2022-09-14T14:12:22;22.20;67.30
38237;DHT22;50101;49.438;11.098;2022-09-14T14:14:59;22.20;67.30
38237;DHT22;50101;49.438;11.098;2022-09-14T14:19:56;22.20;66.70
38237;DHT22;50101;49.438;11.098;2022-09-14T14:22:32;22.20;66.60
38237;DHT22;50101;49.438;11.098;2022-09-14T14:24:59;22.20;67.20
38237;DHT22;50101;49.438;11.098;2022-09-14T14:27:45;22.20;67.40
38237;DHT22;50101;49.438;11.098;2022-09-14T14:30:18;22.30;67.60
38237;DHT22;50101;49.438;11.098;2022-09-14T14:32:49;22.40;67.00
38237;DHT22;50101;49.438;11.098;2022-09-14T14:35:21;22.40;67.10
38237;DHT22;50101;49.438;11.098;2022-09-14T14:37:48;22.40;67.10
38237;DHT22;50101;49.438;11.098;2022-09-14T14:40:16;22.40;67.70
38237;DHT22;50101;49.438;11.098;2022-09-14T14:42:45;22.30;67.50
38237;DHT22;50101;49.438;11.098;2022-09-14T14:45:21;22.30;67.30
38237;DHT22;50101;49.438;11.098;2022-09-14T14:47:48;22.30;67.40
38237;DHT22;50101;49.438;11.098;2022-09-14T14:50:24;22.30;67.90
38237;DHT22;50101;49.438;11.098;2022-09-14T14:52:51;22.30;67.30
38237;DHT22;50101;49.438;11.098;2022-09-14T14:55:19;22.30;68.50
38237;DHT22;50101;49.438;11.098;2022-09-14T14:57:47;22.20;70.30
38237;DHT22;50101;49.438;11.098;2022-09-14T15:00:19;22.20;69.80
38237;DHT22;50101;49.438;11.098;2022-09-14T15:02:46;22.30;70.40
38237;DHT22;50101;49.438;11.098;2022-09-14T15:05:14;22.30;68.70
38237;DHT22;50101;49.438;11.098;2022-09-14T15:07:41;22.20;68.00
38237;DHT22;50101;49.438;11.098;2022-09-14T15:10:12;22.20;68.60
38237;DHT22;50101;49.438;11.098;2022-09-14T15:12:39;22.10;68.60
38237;DHT22;50101;49.438;11.098;2022-09-14T15:15:13;22.20;68.10
38237;DHT22;50101;49.438;11.098;2022-09-14T15:17:40;22.10;68.60
38237;DHT22;50101;49.438;11.098;2022-09-14T15:20:08;22.20;68.10
38237;DHT22;50101;49.438;11.098;2022-09-14T15:22:36;22.20;67.90
38237;DHT22;50101;49.438;11.098;2022-09-14T15:25:04;22.10;68.00
38237;DHT22;50101;49.438;11.098;2022-09-14T15:27:31;22.20;68.70
38237;DHT22;50101;49.438;11.098;2022-09-14T15:29:58;22.10;68.80
38237;DHT22;50101;49.438;11.098;2022-09-14T15:32:25;22.10;68.40
38237;DHT22;50101;49.438;11.098;2022-09-14T15:34:52;22.10;68.90
38237;DHT22;50101;49.438;11.098;2022-09-14T15:37:19;22.10;68.30
38237;DHT22;50101;49.438;11.098;2022-09-14T15:39:45;22.10;68.20
38237;DHT22;50101;49.438;11.098;2022-09-14T15:42:19;22.10;68.00
38237;DHT22;50101;49.438;11.098;2022-09-14T15:44:45;22.10;68.00
38237;DHT22;50101;49.438;11.098;2022-09-14T15:47:13;22.10;68.60
38237;DHT22;50101;49.438;11.098;2022-09-14T15:49:42;22.20;68.50
38237;DHT22;50101;49.438;11.098;2022-09-14T15:52:10;22.20;67.80
38237;DHT22;50101;49.438;11.098;2022-09-14T15:54:38;22.20;67.90
38237;DHT22;50101;49.438;11.098;2022-09-14T15:57:08;22.20;69.20
38237;DHT22;50101;49.438;11.098;2022-09-14T15:59:35;22.20;68.50
38237;DHT22;50101;49.438;11.098;2022-09-14T16:02:02;22.20;68.40
38237;DHT22;50101;49.438;11.098;2022-09-14T16:04:34;22.20;68.40
38237;DHT22;50101;49.438;11.098;2022-09-14T16:07:02;22.20;68.50
38237;DHT22;50101;49.438;11.098;2022-09-14T16:09:30;22.30;68.30
38237;DHT22;50101;49.438;11.098;2022-09-14T16:11:57;22.20;68.40
38237;DHT22;50101;49.438;11.098;2022-09-14T16:14:27;22.20;68.60
38237;DHT22;50101;49.438;11.098;2022-09-14T16:16:54;22.20;68.10
38237;DHT22;50101;49.438;11.098;2022-09-14T16:19:21;22.30;67.80
38237;DHT22;50101;49.438;11.098;2022-09-14T16:21:47;22.30;68.40
38237;DHT22;50101;49.438;11.098;2022-09-14T16:24:19;22.30;67.80
38237;DHT22;50101;49.438;11.098;2022-09-14T16:26:47;22.20;67.70
38237;DHT22;50101;49.438;11.098;2022-09-14T16:29:15;22.20;67.70
38237;DHT22;50101;49.438;11.098;2022-09-14T16:31:44;22.20;68.30
38237;DHT22;50101;49.438;11.098;2022-09-14T16:34:20;22.20;67.70
38237;DHT22;50101;49.438;11.098;2022-09-14T16:36:48;22.20;68.30
38237;DHT22;50101;49.438;11.098;2022-09-14T16:39:21;22.20;68.40
38237;DHT22;50101;49.438;11.098;2022-09-14T16:41:48;22.20;68.40
38237;DHT22;50101;49.438;11.098;2022-09-14T16:44:20;22.20;68.60
38237;DHT22;50101;49.438;11.098;2022-09-14T16:46:49;22.20;68.70
38237;DHT22;50101;49.438;11.098;2022-09-14T16:49:17;22.20;68.50
38237;DHT22;50101;49.438;11.098;2022-09-14T16:51:46;22.20;68.50
38237;DHT22;50101;49.438;11.098;2022-09-14T16:54:18;22.20;68.70
38237;DHT22;50101;49.438;11.098;2022-09-14T16:56:45;22.20;67.90
38237;DHT22;50101;49.438;11.098;2022-09-14T16:59:13;22.20;68.60
38237;DHT22;50101;49.438;11.098;2022-09-14T17:01:44;22.20;68.00
38237;DHT22;50101;49.438;11.098;2022-09-14T17:04:13;22.20;68.00
38237;DHT22;50101;49.438;11.098;2022-09-14T17:06:42;22.20;68.70
38237;DHT22;50101;49.438;11.098;2022-09-14T17:09:12;22.20;68.70
38237;DHT22;50101;49.438;11.098;2022-09-14T17:11:40;22.20;68.70
38237;DHT22;50101;49.438;11.098;2022-09-14T17:14:08;22.20;68.10
38237;DHT22;50101;49.438;11.098;2022-09-14T17:16:35;22.20;68.70
38237;DHT22;50101;49.438;11.098;2022-09-14T17:19:03;22.20;68.70
38237;DHT22;50101;49.438;11.098;2022-09-14T17:21:35;22.10;68.60
38237;DHT22;50101;49.438;11.098;2022-09-14T17:24:02;22.20;68.70
38237;DHT22;50101;49.438;11.098;2022-09-14T17:26:30;22.20;68.90
38237;DHT22;50101;49.438;11.098;2022-09-14T17:28:57;22.20;68.90
38237;DHT22;50101;49.438;11.098;2022-09-14T17:31:27;22.20;69.00
38237;DHT22;50101;49.438;11.098;2022-09-14T17:33:55;22.20;68.90
38237;DHT22;50101;49.438;11.098;2022-09-14T17:36:22;22.20;69.00
38237;DHT22;50101;49.438;11.098;2022-09-14T17:38:50;22.20;68.90
38237;DHT22;50101;49.438;11.098;2022-09-14T17:41:19;22.20;68.90
38237;DHT22;50101;49.438;11.098;2022-09-14T17:43:54;22.20;68.80
38237;DHT22;50101;49.438;11.098;2022-09-14T17:46:22;22.20;68.90
38237;DHT22;50101;49.438;11.098;2022-09-14T17:48:49;22.20;69.00